createdAt,value
2018-12-31T00:01:00.236Z,21.53
2018-12-31T00:04:32.760Z,20.63
2018-12-31T00:07:22.317Z,14.77
2018-12-31T00:10:11.757Z,17.57
2018-12-31T00:12:42.014Z,21.00
2018-12-31T00:15:11.919Z,21.60
2018-12-31T00:17:42.025Z,20.80
2018-12-31T00:20:12.055Z,18.87
2018-12-31T00:22:42.093Z,17.23
2018-12-31T00:25:12.060Z,18.07
2018-12-31T00:27:43.924Z,20.10
2018-12-31T00:30:14.171Z,20.80
2018-12-31T00:32:44.337Z,15.93
2018-12-31T00:35:14.781Z,17.70
2018-12-31T00:37:51.043Z,16.27
2018-12-31T00:40:21.084Z,25.00
2018-12-31T00:42:58.875Z,14.90
2018-12-31T00:45:23.536Z,19.17
2018-12-31T00:47:53.641Z,15.20
2018-12-31T00:50:23.602Z,16.37
2018-12-31T00:53:13.322Z,16.17
2018-12-31T00:56:02.508Z,14.63
2018-12-31T00:58:51.758Z,13.30
2018-12-31T01:01:41.614Z,17.23
2018-12-31T01:04:30.882Z,20.13
2018-12-31T01:07:20.064Z,17.60
2018-12-31T01:10:09.239Z,18.67
2018-12-31T01:12:58.412Z,15.63
2018-12-31T01:15:47.624Z,21.67
2018-12-31T01:18:36.811Z,19.63
2018-12-31T01:21:19.349Z,17.13
2018-12-31T01:24:08.872Z,20.40
2018-12-31T01:26:50.677Z,19.00
2018-12-31T01:29:39.860Z,13.03
2018-12-31T01:32:29.097Z,18.50
2018-12-31T01:35:18.316Z,18.10
2018-12-31T01:38:07.518Z,21.63
2018-12-31T01:40:56.818Z,25.70
2018-12-31T01:43:58.203Z,15.23
2018-12-31T01:46:37.065Z,25.47
2018-12-31T01:49:26.377Z,16.87
2018-12-31T01:52:15.844Z,10.80
2018-12-31T01:55:05.213Z,13.07
2018-12-31T01:57:54.614Z,17.67
2018-12-31T02:00:43.847Z,14.97
2018-12-31T02:03:33.289Z,15.73
2018-12-31T02:06:22.608Z,14.93
2018-12-31T02:09:12.348Z,14.33
2018-12-31T02:12:01.589Z,17.70
2018-12-31T02:14:51.021Z,24.70
2018-12-31T02:17:40.449Z,16.73
2018-12-31T02:20:30.336Z,22.30
2018-12-31T02:23:20.960Z,17.77
2018-12-31T02:26:11.169Z,20.67
2018-12-31T02:29:00.504Z,18.67
2018-12-31T02:31:49.661Z,21.97
2018-12-31T02:34:19.683Z,12.43
2018-12-31T02:37:08.875Z,19.73
2018-12-31T02:39:58.046Z,18.23
2018-12-31T02:43:06.327Z,16.87
2018-12-31T02:45:55.624Z,19.00
2018-12-31T02:48:44.796Z,18.97
2018-12-31T02:51:53.046Z,21.80
2018-12-31T02:54:42.335Z,19.57
2018-12-31T02:57:31.821Z,15.43
2018-12-31T03:00:21.645Z,23.47
2018-12-31T03:06:06.777Z,17.73
2018-12-31T03:08:36.885Z,24.33
2018-12-31T03:11:07.215Z,18.33
2018-12-31T03:13:37.150Z,22.80
2018-12-31T03:16:07.164Z,18.37
2018-12-31T03:18:37.178Z,21.93
2018-12-31T03:21:07.280Z,17.33
2018-12-31T03:23:37.701Z,14.93
2018-12-31T03:26:27.195Z,21.43
2018-12-31T03:29:16.798Z,18.93
2018-12-31T03:32:06.142Z,19.60
2018-12-31T03:38:03.461Z,20.47
2018-12-31T03:40:52.895Z,22.20
2018-12-31T03:43:42.049Z,16.07
2018-12-31T03:46:31.283Z,18.90
2018-12-31T03:49:20.702Z,17.97
2018-12-31T03:52:28.918Z,21.50
2018-12-31T03:55:18.651Z,13.83
2018-12-31T03:58:07.805Z,21.37
2018-12-31T04:00:56.969Z,17.30
2018-12-31T04:03:46.155Z,18.47
2018-12-31T04:06:35.868Z,19.57
2018-12-31T04:09:25.069Z,23.33
2018-12-31T04:12:14.274Z,14.73
2018-12-31T04:15:04.091Z,17.30
2018-12-31T04:17:34.020Z,17.73
2018-12-31T04:20:23.216Z,20.23
2018-12-31T04:23:05.346Z,17.63
2018-12-31T04:25:54.596Z,16.23
2018-12-31T04:28:43.774Z,15.73
2018-12-31T04:31:33.016Z,17.13
2018-12-31T04:34:22.129Z,17.33
2018-12-31T04:37:11.310Z,21.50
2018-12-31T04:40:00.472Z,17.20
2018-12-31T04:42:49.664Z,17.10
2018-12-31T04:45:38.841Z,17.53
2018-12-31T04:48:28.013Z,18.63
2018-12-31T04:51:17.415Z,15.80
2018-12-31T04:54:06.792Z,16.97
2018-12-31T04:56:56.098Z,17.13
2018-12-31T04:59:45.827Z,15.17
2018-12-31T05:02:37.224Z,17.43
2018-12-31T05:05:26.447Z,17.53
2018-12-31T05:08:16.156Z,23.50
2018-12-31T05:10:46.130Z,16.37
2018-12-31T05:13:16.451Z,17.47
2018-12-31T05:15:46.437Z,16.17
2018-12-31T05:18:35.685Z,20.27
2018-12-31T05:21:17.275Z,19.17
2018-12-31T05:24:06.478Z,21.73
2018-12-31T05:26:55.778Z,23.53
2018-12-31T05:29:44.919Z,20.73
2018-12-31T05:32:53.803Z,24.97
2018-12-31T05:35:44.507Z,21.70
2018-12-31T05:38:33.685Z,25.77
2018-12-31T05:41:22.858Z,27.73
2018-12-31T05:44:12.013Z,33.03
2018-12-31T05:47:01.469Z,37.63
2018-12-31T05:49:50.684Z,34.20
2018-12-31T05:52:40.157Z,34.67
2018-12-31T05:55:29.303Z,35.67
2018-12-31T05:58:18.503Z,37.13
2018-12-31T06:01:26.826Z,32.47
2018-12-31T06:04:16.070Z,38.43
2018-12-31T06:07:05.713Z,36.23
2018-12-31T06:09:54.963Z,39.07
2018-12-31T06:12:44.115Z,32.13
2018-12-31T06:15:33.319Z,33.87
2018-12-31T06:18:41.651Z,37.27
2018-12-31T06:21:23.445Z,38.53
2018-12-31T06:24:12.651Z,40.00
2018-12-31T06:27:01.847Z,33.17
2018-12-31T06:29:51.350Z,43.27
2018-12-31T06:32:41.125Z,41.00
2018-12-31T06:35:30.575Z,41.47
2018-12-31T06:38:20.203Z,41.40
2018-12-31T06:41:09.377Z,41.70
2018-12-31T06:43:58.649Z,47.03
2018-12-31T06:46:55.921Z,48.37
2018-12-31T06:49:45.748Z,44.03
2018-12-31T06:52:34.913Z,40.20
2018-12-31T06:55:24.071Z,36.13
2018-12-31T06:58:13.293Z,41.83
2018-12-31T07:01:02.515Z,46.80
2018-12-31T07:03:51.690Z,37.93
2018-12-31T07:06:40.883Z,42.53
2018-12-31T07:09:30.067Z,37.63
2018-12-31T07:12:19.313Z,39.60
2018-12-31T07:15:08.815Z,39.70
2018-12-31T07:17:57.997Z,36.30
2018-12-31T07:20:47.161Z,45.37
2018-12-31T07:23:29.403Z,43.27
2018-12-31T07:26:18.614Z,32.53
2018-12-31T07:29:07.780Z,36.87
2018-12-31T07:31:56.943Z,30.70
2018-12-31T07:34:46.382Z,31.67
2018-12-31T07:37:35.770Z,39.60
2018-12-31T07:40:24.997Z,28.77
2018-12-31T07:43:14.253Z,32.87
2018-12-31T07:46:03.501Z,32.40
2018-12-31T07:48:52.669Z,42.17
2018-12-31T07:51:42.383Z,40.00
2018-12-31T07:54:12.522Z,38.10
2018-12-31T07:56:42.647Z,38.93
2018-12-31T07:59:12.589Z,34.97
2018-12-31T08:01:42.754Z,45.57
2018-12-31T08:04:13.010Z,36.77
2018-12-31T08:06:42.992Z,31.77
2018-12-31T08:09:12.889Z,37.50
2018-12-31T08:11:42.988Z,33.90
2018-12-31T08:14:12.865Z,42.93
2018-12-31T08:16:42.824Z,35.47
2018-12-31T08:19:12.731Z,38.00
2018-12-31T08:21:42.919Z,37.70
2018-12-31T08:24:12.829Z,41.97
2018-12-31T08:26:42.715Z,36.73
2018-12-31T08:29:32.237Z,33.80
2018-12-31T08:32:21.476Z,33.50
2018-12-31T08:38:18.940Z,32.70
2018-12-31T08:41:08.358Z,36.43
2018-12-31T08:43:57.554Z,43.27
2018-12-31T08:46:46.787Z,38.77
2018-12-31T08:49:35.995Z,40.77
2018-12-31T08:52:25.358Z,33.60
2018-12-31T08:55:15.014Z,37.60
2018-12-31T08:57:45.016Z,41.17
2018-12-31T09:00:15.209Z,36.70
2018-12-31T09:03:04.461Z,25.17
2018-12-31T09:05:53.632Z,32.80
2018-12-31T09:11:56.464Z,33.50
2018-12-31T09:14:45.649Z,26.97
2018-12-31T09:17:34.908Z,30.43
2018-12-31T09:20:24.430Z,28.40
2018-12-31T09:22:54.486Z,32.23
2018-12-31T09:25:43.757Z,27.60
2018-12-31T09:28:33.023Z,26.83
2018-12-31T09:31:22.309Z,26.07
2018-12-31T09:34:30.745Z,22.80
2018-12-31T09:37:20.220Z,22.50
2018-12-31T09:40:09.409Z,18.17
2018-12-31T09:42:58.620Z,23.27
2018-12-31T09:45:47.809Z,23.10
2018-12-31T09:48:36.979Z,26.67
2018-12-31T09:54:22.400Z,25.57
2018-12-31T09:57:11.664Z,21.53
2018-12-31T10:00:00.844Z,24.93
2018-12-31T10:02:50.108Z,26.17
2018-12-31T10:05:39.264Z,22.37
2018-12-31T10:08:28.463Z,22.00
2018-12-31T10:11:17.664Z,20.87
2018-12-31T10:14:07.058Z,24.43
2018-12-31T10:16:56.255Z,20.57
2018-12-31T10:19:45.727Z,16.57
2018-12-31T10:22:31.576Z,23.37
2018-12-31T10:25:20.756Z,22.83
2018-12-31T10:31:18.379Z,21.80
2018-12-31T10:34:07.545Z,26.73
2018-12-31T10:36:56.948Z,22.70
2018-12-31T10:39:46.143Z,20.70
2018-12-31T10:42:35.380Z,21.83
2018-12-31T10:45:24.738Z,21.47
2018-12-31T10:48:13.955Z,20.67
2018-12-31T10:51:03.200Z,20.37
2018-12-31T10:53:52.378Z,18.80
2018-12-31T10:56:41.608Z,19.70
2018-12-31T10:59:30.869Z,22.17
2018-12-31T11:02:20.076Z,19.60
2018-12-31T11:05:09.434Z,18.40
2018-12-31T11:07:58.744Z,19.77
2018-12-31T11:13:56.661Z,22.70
2018-12-31T11:16:45.915Z,18.57
2018-12-31T11:19:35.330Z,18.47
2018-12-31T11:22:16.969Z,22.60
2018-12-31T11:25:25.276Z,27.00
2018-12-31T11:28:51.914Z,22.97
2018-12-31T11:31:30.499Z,18.30
2018-12-31T11:34:19.826Z,20.10
2018-12-31T11:37:09.324Z,25.87
2018-12-31T11:39:58.582Z,19.57
2018-12-31T11:42:47.774Z,22.93
2018-12-31T11:45:36.946Z,20.20
2018-12-31T11:48:26.147Z,16.20
2018-12-31T11:51:15.383Z,21.47
2018-12-31T11:54:04.654Z,16.50
2018-12-31T11:56:54.286Z,19.80
2018-12-31T12:00:24.027Z,24.80
2018-12-31T12:03:13.207Z,21.00
2018-12-31T12:06:23.486Z,25.20
2018-12-31T12:09:12.837Z,15.17
2018-12-31T12:12:02.049Z,16.40
2018-12-31T12:14:51.614Z,17.00
2018-12-31T12:17:41.114Z,16.13
2018-12-31T12:20:30.781Z,18.33
2018-12-31T12:23:13.018Z,17.57
2018-12-31T12:26:02.202Z,15.80
2018-12-31T12:28:51.379Z,16.40
2018-12-31T12:31:40.563Z,13.63
2018-12-31T12:34:30.012Z,16.27
2018-12-31T12:36:59.946Z,15.50
2018-12-31T12:39:49.539Z,18.63
2018-12-31T12:42:38.742Z,18.37
2018-12-31T12:45:29.655Z,14.10
2018-12-31T12:48:18.797Z,13.27
2018-12-31T12:51:08.299Z,16.20
2018-12-31T12:53:57.558Z,18.17
2018-12-31T12:56:46.949Z,15.93
2018-12-31T12:59:36.382Z,19.40
2018-12-31T13:02:25.620Z,18.37
2018-12-31T13:05:14.785Z,17.60
2018-12-31T13:08:23.185Z,14.63
2018-12-31T13:11:12.794Z,16.20
2018-12-31T13:13:42.730Z,16.63
2018-12-31T13:16:13.415Z,18.67
2018-12-31T13:18:43.619Z,16.87
2018-12-31T13:21:14.097Z,14.20
2018-12-31T13:23:44.076Z,48.47
2018-12-31T13:26:14.273Z,30.90
2018-12-31T13:28:44.415Z,16.13
2018-12-31T13:31:14.556Z,11.13
2018-12-31T13:33:44.459Z,11.17
2018-12-31T13:36:14.414Z,10.47
2018-12-31T13:42:32.194Z,10.83
2018-12-31T13:45:21.492Z,12.20
2018-12-31T13:48:10.708Z,10.57
2018-12-31T13:51:00.083Z,12.37
2018-12-31T13:54:03.934Z,13.87
2018-12-31T13:59:36.753Z,13.27
2018-12-31T14:02:26.017Z,14.97
2018-12-31T14:05:16.530Z,14.07
2018-12-31T14:08:06.370Z,15.07
2018-12-31T14:10:55.634Z,15.37
2018-12-31T14:13:44.991Z,15.27
2018-12-31T14:16:34.326Z,15.10
2018-12-31T14:22:13.050Z,13.83
2018-12-31T14:24:43.414Z,23.33
2018-12-31T14:27:32.616Z,20.50
2018-12-31T14:30:21.914Z,19.90
2018-12-31T14:33:11.619Z,17.83
2018-12-31T14:36:01.035Z,16.87
2018-12-31T14:38:52.719Z,22.23
2018-12-31T14:41:42.032Z,17.53
2018-12-31T14:44:31.318Z,22.63
2018-12-31T14:47:20.700Z,19.60
2018-12-31T14:50:10.098Z,20.53
2018-12-31T14:53:01.808Z,19.33
2018-12-31T14:59:19.754Z,37.57
2018-12-31T15:02:08.988Z,24.17
2018-12-31T15:04:58.376Z,26.73
2018-12-31T15:07:47.627Z,29.67
2018-12-31T15:10:37.232Z,25.27
2018-12-31T15:13:26.867Z,33.07
2018-12-31T15:16:16.253Z,56.47
2018-12-31T15:19:05.448Z,40.40
2018-12-31T15:21:47.347Z,31.97
2018-12-31T15:24:36.565Z,34.43
2018-12-31T15:27:25.732Z,33.33
2018-12-31T15:33:31.838Z,28.67
2018-12-31T15:36:21.077Z,29.83
2018-12-31T15:39:12.214Z,79.13
2018-12-31T15:42:01.642Z,38.57
2018-12-31T15:44:33.514Z,34.70
2018-12-31T15:47:03.688Z,41.40
2018-12-31T15:49:33.678Z,44.10
2018-12-31T15:52:03.586Z,36.67
2018-12-31T15:54:33.742Z,39.77
2018-12-31T15:57:03.761Z,38.67
2018-12-31T15:59:33.964Z,45.00
2018-12-31T16:02:03.885Z,84.40
2018-12-31T16:04:34.056Z,56.50
2018-12-31T16:07:04.164Z,59.47
2018-12-31T16:09:34.063Z,50.33
2018-12-31T16:12:04.046Z,111.43
2018-12-31T16:14:34.859Z,70.67
2018-12-31T16:17:05.053Z,98.77
2018-12-31T16:19:35.489Z,160.13
2018-12-31T16:22:05.438Z,122.70
2018-12-31T16:24:35.851Z,54.70
2018-12-31T16:27:05.812Z,48.93
2018-12-31T16:29:35.979Z,52.60
2018-12-31T16:32:05.880Z,44.40
2018-12-31T16:34:35.863Z,50.63
2018-12-31T16:37:05.888Z,46.33
2018-12-31T16:39:35.822Z,53.30
2018-12-31T16:42:06.076Z,50.63
2018-12-31T16:44:37.401Z,55.23
2018-12-31T16:47:07.437Z,57.83
2018-12-31T16:49:37.566Z,59.63
2018-12-31T16:52:07.725Z,52.03
2018-12-31T16:54:37.728Z,47.87
2018-12-31T16:57:08.099Z,46.17
2018-12-31T16:59:38.017Z,46.40
2018-12-31T17:02:08.239Z,53.87
2018-12-31T17:04:41.439Z,45.33
2018-12-31T17:07:11.500Z,42.13
2018-12-31T17:09:41.436Z,60.73
2018-12-31T17:12:11.348Z,54.10
2018-12-31T17:14:41.828Z,66.07
2018-12-31T17:17:12.326Z,67.13
2018-12-31T17:19:42.224Z,61.93
2018-12-31T17:22:12.242Z,77.73
2018-12-31T17:24:42.389Z,67.53
2018-12-31T17:27:31.547Z,60.67
2018-12-31T17:30:20.758Z,75.10
2018-12-31T17:33:10.179Z,54.77
2018-12-31T17:39:00.073Z,56.40
2018-12-31T17:41:49.412Z,65.37
2018-12-31T17:44:40.516Z,124.80
2018-12-31T17:47:30.320Z,108.00
2018-12-31T17:50:21.647Z,71.00
2018-12-31T17:53:10.955Z,52.10
2018-12-31T17:56:01.950Z,62.30
2018-12-31T17:58:51.183Z,54.73
2018-12-31T18:01:42.322Z,67.27
2018-12-31T18:04:31.859Z,54.83
2018-12-31T18:07:21.086Z,64.23
2018-12-31T18:10:10.664Z,55.57
2018-12-31T18:13:01.622Z,126.57
2018-12-31T18:15:50.814Z,67.77
2018-12-31T18:18:40.059Z,145.07
2018-12-31T18:21:22.201Z,72.90
2018-12-31T18:24:11.682Z,80.03
2018-12-31T18:27:01.191Z,63.07
2018-12-31T18:29:32.943Z,71.10
2018-12-31T18:32:02.899Z,40.03
2018-12-31T18:34:33.118Z,39.70
2018-12-31T18:37:03.243Z,194.13
2018-12-31T18:39:57.898Z,79.67
2018-12-31T18:42:43.300Z,44.20
2018-12-31T18:45:32.559Z,98.87
2018-12-31T18:48:22.091Z,295.50
2018-12-31T18:51:12.649Z,61.77
2018-12-31T18:54:02.404Z,54.47
2018-12-31T18:56:32.720Z,60.80
2018-12-31T18:59:08.259Z,44.57
2018-12-31T19:01:38.449Z,48.00
2018-12-31T19:04:08.891Z,44.13
2018-12-31T19:06:38.925Z,51.07
2018-12-31T19:09:09.419Z,53.83
2018-12-31T19:11:39.601Z,54.00
2018-12-31T19:14:09.641Z,50.93
2018-12-31T19:16:39.576Z,65.90
2018-12-31T19:19:09.770Z,65.77
2018-12-31T19:21:39.803Z,48.37
2018-12-31T19:24:09.998Z,92.87
2018-12-31T19:26:59.182Z,60.87
2018-12-31T19:29:48.368Z,76.67
2018-12-31T19:32:37.697Z,171.07
2018-12-31T19:35:27.313Z,58.00
2018-12-31T19:38:16.517Z,54.27
2018-12-31T19:41:05.991Z,60.20
2018-12-31T19:43:55.269Z,57.00
2018-12-31T19:46:44.424Z,84.07
2018-12-31T19:49:33.628Z,74.33
2018-12-31T19:52:23.032Z,68.83
2018-12-31T19:55:12.489Z,71.43
2018-12-31T19:58:01.955Z,74.83
2018-12-31T20:00:51.162Z,84.23
2018-12-31T20:03:40.701Z,94.93
2018-12-31T20:06:30.704Z,249.33
2018-12-31T20:09:00.895Z,78.80
2018-12-31T20:11:30.813Z,54.10
2018-12-31T20:14:00.757Z,105.70
2018-12-31T20:16:30.764Z,123.17
2018-12-31T20:19:00.889Z,148.87
2018-12-31T20:21:31.172Z,400.20
2018-12-31T20:24:01.210Z,646.27
2018-12-31T20:26:31.215Z,365.10
2018-12-31T20:29:01.435Z,142.30
2018-12-31T20:31:31.376Z,153.90
2018-12-31T20:34:03.847Z,82.70
2018-12-31T20:36:40.675Z,115.20
2018-12-31T20:39:14.290Z,76.43
2018-12-31T20:42:03.314Z,89.93
2018-12-31T20:44:52.468Z,70.07
2018-12-31T20:47:41.733Z,147.83
2018-12-31T20:50:31.219Z,82.90
2018-12-31T20:53:20.594Z,97.27
2018-12-31T20:56:09.791Z,92.97
2018-12-31T20:58:59.439Z,79.40
2018-12-31T21:01:50.324Z,77.07
2018-12-31T21:04:40.028Z,126.47
2018-12-31T21:07:31.258Z,81.63
2018-12-31T21:10:20.455Z,66.40
2018-12-31T21:13:09.970Z,99.57
2018-12-31T21:15:59.201Z,83.20
2018-12-31T21:18:48.595Z,83.00
2018-12-31T21:21:30.530Z,74.50
2018-12-31T21:24:19.722Z,66.70
2018-12-31T21:27:08.996Z,84.93
2018-12-31T21:29:58.155Z,70.57
2018-12-31T21:32:47.337Z,71.23
2018-12-31T21:35:36.529Z,67.07
2018-12-31T21:38:25.748Z,62.17
2018-12-31T21:41:14.941Z,66.97
2018-12-31T21:44:04.462Z,59.07
2018-12-31T21:46:53.681Z,56.97
2018-12-31T21:49:42.847Z,55.63
2018-12-31T21:52:32.286Z,65.20
2018-12-31T21:55:40.638Z,53.03
2018-12-31T21:58:31.906Z,59.87
2018-12-31T22:01:21.318Z,56.17
2018-12-31T22:04:10.955Z,54.67
2018-12-31T22:07:00.190Z,55.37
2018-12-31T22:12:46.381Z,77.17
2018-12-31T22:15:35.571Z,63.30
2018-12-31T22:18:24.766Z,65.33
2018-12-31T22:21:07.024Z,67.33
2018-12-31T22:23:56.256Z,77.43
2018-12-31T22:26:47.168Z,68.23
2018-12-31T22:29:36.369Z,63.00
2018-12-31T22:32:27.347Z,63.30
2018-12-31T22:35:16.546Z,66.27
2018-12-31T22:38:07.450Z,55.30
2018-12-31T22:40:56.628Z,60.63
2018-12-31T22:43:47.732Z,67.20
2018-12-31T22:46:55.901Z,58.13
2018-12-31T22:49:45.074Z,55.40
2018-12-31T22:52:34.328Z,49.83
2018-12-31T22:55:23.809Z,65.50
2018-12-31T22:58:13.070Z,93.93
2018-12-31T23:03:57.875Z,450.30
2018-12-31T23:06:47.698Z,1001.20
2018-12-31T23:09:41.089Z,504.73
2018-12-31T23:12:28.099Z,744.60
2018-12-31T23:15:21.291Z,743.13
2018-12-31T23:18:10.465Z,738.73
2018-12-31T23:20:59.944Z,711.73
2018-12-31T23:24:08.174Z,724.37
2018-12-31T23:26:57.401Z,486.47
2018-12-31T23:29:46.909Z,664.30
2018-12-31T23:32:36.152Z,422.47
2018-12-31T23:35:25.372Z,555.10
2018-12-31T23:38:14.918Z,448.70
2018-12-31T23:41:04.481Z,514.03
2018-12-31T23:43:53.774Z,378.53
2018-12-31T23:46:42.974Z,254.20
2018-12-31T23:49:51.211Z,319.47
2018-12-31T23:52:40.741Z,151.07
2018-12-31T23:55:29.953Z,146.87
2018-12-31T23:58:19.158Z,194.03
